Terminal Aerodrome Forecast
Issued by NWS

Home | Current Version | Previous Version | Graphics & Text | Print | Product List | Glossary On
Versions: 1 2 3 4 5 6 7 8 9 10 11 12 13 14 15 16 17 18 19 20 21 22 23
362
FTUS43 KOAX 231507 AAA
TAFCDR
TAF AMD
KCDR 231507Z 2315/2412 04009KT P6SM VCSH OVC012
      TEMPO 2315/2318 3SM BR OVC008
     FM231800 03007KT 5SM -SHRA OVC010=

USA.gov is the U.S. government's official web portal to all federal, state and local government web resources and services.